sensor_id;sensor_type;location;lat;lon;timestamp;P1;durP1;ratioP1;P2;durP2;ratioP2
2219;SDS011;1116;51.502;7.414;2023-11-21T00:00:24;19.83;;;6.32;;
2219;SDS011;1116;51.502;7.414;2023-11-21T00:02:54;14.52;;;6.15;;
2219;SDS011;1116;51.502;7.414;2023-11-21T00:05:24;16.75;;;7.00;;
2219;SDS011;1116;51.502;7.414;2023-11-21T00:07:54;11.40;;;6.55;;
2219;SDS011;1116;51.502;7.414;2023-11-21T00:10:27;8.80;;;5.30;;
2219;SDS011;1116;51.502;7.414;2023-11-21T00:12:57;11.68;;;5.25;;
2219;SDS011;1116;51.502;7.414;2023-11-21T00:15:28;14.18;;;6.20;;
2219;SDS011;1116;51.502;7.414;2023-11-21T00:17:59;13.88;;;5.90;;
2219;SDS011;1116;51.502;7.414;2023-11-21T00:20:29;9.40;;;5.70;;
2219;SDS011;1116;51.502;7.414;2023-11-21T00:22:59;11.07;;;5.47;;
2219;SDS011;1116;51.502;7.414;2023-11-21T00:25:32;10.57;;;5.85;;
2219;SDS011;1116;51.502;7.414;2023-11-21T00:28:02;11.13;;;5.95;;
2219;SDS011;1116;51.502;7.414;2023-11-21T00:30:32;12.45;;;6.35;;
2219;SDS011;1116;51.502;7.414;2023-11-21T00:33:02;12.82;;;6.40;;
2219;SDS011;1116;51.502;7.414;2023-11-21T00:35:32;14.20;;;6.28;;
2219;SDS011;1116;51.502;7.414;2023-11-21T00:38:02;15.65;;;6.35;;
2219;SDS011;1116;51.502;7.414;2023-11-21T00:40:35;13.10;;;6.13;;
2219;SDS011;1116;51.502;7.414;2023-11-21T00:43:05;9.68;;;5.45;;
2219;SDS011;1116;51.502;7.414;2023-11-21T00:45:35;12.07;;;5.85;;
2219;SDS011;1116;51.502;7.414;2023-11-21T00:48:06;15.43;;;6.53;;
2219;SDS011;1116;51.502;7.414;2023-11-21T00:50:36;10.50;;;5.63;;
2219;SDS011;1116;51.502;7.414;2023-11-21T00:53:06;13.93;;;6.47;;
2219;SDS011;1116;51.502;7.414;2023-11-21T00:55:39;18.73;;;6.78;;
2219;SDS011;1116;51.502;7.414;2023-11-21T00:58:09;12.45;;;5.88;;
2219;SDS011;1116;51.502;7.414;2023-11-21T01:00:39;15.95;;;6.60;;
2219;SDS011;1116;51.502;7.414;2023-11-21T01:03:10;14.73;;;6.97;;
2219;SDS011;1116;51.502;7.414;2023-11-21T01:05:40;16.25;;;6.85;;
2219;SDS011;1116;51.502;7.414;2023-11-21T01:08:10;17.88;;;7.20;;
2219;SDS011;1116;51.502;7.414;2023-11-21T01:10:43;22.15;;;7.60;;
2219;SDS011;1116;51.502;7.414;2023-11-21T01:13:13;13.88;;;6.47;;
2219;SDS011;1116;51.502;7.414;2023-11-21T01:15:44;17.85;;;7.28;;
2219;SDS011;1116;51.502;7.414;2023-11-21T01:18:15;14.73;;;6.38;;
2219;SDS011;1116;51.502;7.414;2023-11-21T01:20:45;15.65;;;7.03;;
2219;SDS011;1116;51.502;7.414;2023-11-21T01:23:15;17.50;;;7.35;;
2219;SDS011;1116;51.502;7.414;2023-11-21T01:25:47;13.80;;;7.22;;
2219;SDS011;1116;51.502;7.414;2023-11-21T01:28:18;14.88;;;6.80;;
2219;SDS011;1116;51.502;7.414;2023-11-21T01:30:48;15.40;;;6.30;;
2219;SDS011;1116;51.502;7.414;2023-11-21T01:33:19;16.55;;;8.30;;
2219;SDS011;1116;51.502;7.414;2023-11-21T01:35:51;18.17;;;8.40;;
2219;SDS011;1116;51.502;7.414;2023-11-21T01:38:22;16.30;;;7.55;;
2219;SDS011;1116;51.502;7.414;2023-11-21T01:40:54;13.60;;;6.85;;
2219;SDS011;1116;51.502;7.414;2023-11-21T01:43:27;17.77;;;7.55;;
2219;SDS011;1116;51.502;7.414;2023-11-21T01:45:57;15.10;;;6.82;;
2219;SDS011;1116;51.502;7.414;2023-11-21T01:48:28;16.70;;;8.40;;
2219;SDS011;1116;51.502;7.414;2023-11-21T01:50:58;19.02;;;8.90;;
2219;SDS011;1116;51.502;7.414;2023-11-21T01:53:28;19.40;;;7.80;;
2219;SDS011;1116;51.502;7.414;2023-11-21T01:56:01;20.25;;;7.93;;
2219;SDS011;1116;51.502;7.414;2023-11-21T01:58:31;17.25;;;7.80;;
2219;SDS011;1116;51.502;7.414;2023-11-21T02:01:01;15.23;;;7.97;;
2219;SDS011;1116;51.502;7.414;2023-11-21T02:03:31;16.65;;;8.85;;
2219;SDS011;1116;51.502;7.414;2023-11-21T02:06:01;19.50;;;8.32;;
2219;SDS011;1116;51.502;7.414;2023-11-21T02:08:31;18.45;;;7.40;;
2219;SDS011;1116;51.502;7.414;2023-11-21T02:11:07;17.80;;;8.05;;
2219;SDS011;1116;51.502;7.414;2023-11-21T02:13:39;22.65;;;9.10;;
2219;SDS011;1116;51.502;7.414;2023-11-21T02:16:10;20.38;;;8.10;;
2219;SDS011;1116;51.502;7.414;2023-11-21T02:18:41;21.58;;;8.05;;
2219;SDS011;1116;51.502;7.414;2023-11-21T02:21:11;20.90;;;8.80;;
2219;SDS011;1116;51.502;7.414;2023-11-21T02:23:43;17.42;;;8.00;;
2219;SDS011;1116;51.502;7.414;2023-11-21T02:26:14;23.52;;;8.55;;
2219;SDS011;1116;51.502;7.414;2023-11-21T02:28:43;18.70;;;8.45;;
2219;SDS011;1116;51.502;7.414;2023-11-21T02:31:14;19.90;;;8.55;;
2219;SDS011;1116;51.502;7.414;2023-11-21T02:33:45;17.15;;;7.93;;
2219;SDS011;1116;51.502;7.414;2023-11-21T02:36:15;16.77;;;8.52;;
2219;SDS011;1116;51.502;7.414;2023-11-21T02:38:47;18.05;;;8.55;;
2219;SDS011;1116;51.502;7.414;2023-11-21T02:41:17;16.13;;;8.15;;
2219;SDS011;1116;51.502;7.414;2023-11-21T02:43:47;20.58;;;9.02;;
2219;SDS011;1116;51.502;7.414;2023-11-21T02:46:17;19.52;;;8.98;;
2219;SDS011;1116;51.502;7.414;2023-11-21T02:48:47;17.98;;;8.18;;
2219;SDS011;1116;51.502;7.414;2023-11-21T02:51:17;15.07;;;8.45;;
2219;SDS011;1116;51.502;7.414;2023-11-21T02:53:50;18.58;;;8.45;;
2219;SDS011;1116;51.502;7.414;2023-11-21T02:56:20;17.48;;;8.15;;
2219;SDS011;1116;51.502;7.414;2023-11-21T02:58:49;16.23;;;8.18;;
2219;SDS011;1116;51.502;7.414;2023-11-21T03:01:19;20.65;;;8.65;;
2219;SDS011;1116;51.502;7.414;2023-11-21T03:03:50;20.65;;;8.90;;
2219;SDS011;1116;51.502;7.414;2023-11-21T03:06:21;24.58;;;9.05;;
2219;SDS011;1116;51.502;7.414;2023-11-21T03:08:55;21.73;;;9.45;;
2219;SDS011;1116;51.502;7.414;2023-11-21T03:11:25;18.30;;;8.73;;
2219;SDS011;1116;51.502;7.414;2023-11-21T03:13:55;19.50;;;9.40;;
2219;SDS011;1116;51.502;7.414;2023-11-21T03:16:25;19.95;;;7.68;;
2219;SDS011;1116;51.502;7.414;2023-11-21T03:18:55;19.35;;;9.10;;
2219;SDS011;1116;51.502;7.414;2023-11-21T03:21:25;20.73;;;8.75;;
2219;SDS011;1116;51.502;7.414;2023-11-21T03:23:58;19.67;;;9.07;;
2219;SDS011;1116;51.502;7.414;2023-11-21T03:26:28;16.25;;;7.78;;
2219;SDS011;1116;51.502;7.414;2023-11-21T03:28:58;23.30;;;8.73;;
2219;SDS011;1116;51.502;7.414;2023-11-21T03:31:28;15.77;;;8.15;;
2219;SDS011;1116;51.502;7.414;2023-11-21T03:33:58;19.90;;;8.57;;
2219;SDS011;1116;51.502;7.414;2023-11-21T03:36:28;21.90;;;9.85;;
2219;SDS011;1116;51.502;7.414;2023-11-21T03:39:01;18.77;;;9.30;;
2219;SDS011;1116;51.502;7.414;2023-11-21T03:41:31;19.13;;;8.57;;
2219;SDS011;1116;51.502;7.414;2023-11-21T03:44:01;19.85;;;8.75;;
2219;SDS011;1116;51.502;7.414;2023-11-21T03:46:31;18.58;;;9.25;;
2219;SDS011;1116;51.502;7.414;2023-11-21T03:49:01;22.23;;;9.30;;
2219;SDS011;1116;51.502;7.414;2023-11-21T03:51:31;20.63;;;8.98;;
2219;SDS011;1116;51.502;7.414;2023-11-21T03:54:04;16.58;;;8.55;;
2219;SDS011;1116;51.502;7.414;2023-11-21T03:56:34;19.80;;;8.88;;
2219;SDS011;1116;51.502;7.414;2023-11-21T03:59:04;19.15;;;8.18;;
2219;SDS011;1116;51.502;7.414;2023-11-21T04:01:33;24.05;;;9.30;;
2219;SDS011;1116;51.502;7.414;2023-11-21T04:04:04;22.70;;;8.43;;
2219;SDS011;1116;51.502;7.414;2023-11-21T04:06:34;19.95;;;9.30;;
2219;SDS011;1116;51.502;7.414;2023-11-21T04:09:07;15.13;;;7.90;;
2219;SDS011;1116;51.502;7.414;2023-11-21T04:11:37;23.17;;;8.93;;
2219;SDS011;1116;51.502;7.414;2023-11-21T04:14:06;19.35;;;8.35;;
2219;SDS011;1116;51.502;7.414;2023-11-21T04:16:36;21.50;;;9.25;;
2219;SDS011;1116;51.502;7.414;2023-11-21T04:19:06;18.55;;;8.82;;
2219;SDS011;1116;51.502;7.414;2023-11-21T04:21:36;18.42;;;9.02;;
2219;SDS011;1116;51.502;7.414;2023-11-21T04:24:09;18.45;;;8.52;;
2219;SDS011;1116;51.502;7.414;2023-11-21T04:26:39;19.17;;;8.27;;
2219;SDS011;1116;51.502;7.414;2023-11-21T04:29:09;22.73;;;9.73;;
2219;SDS011;1116;51.502;7.414;2023-11-21T04:31:39;19.20;;;8.23;;
2219;SDS011;1116;51.502;7.414;2023-11-21T04:34:09;18.98;;;8.65;;
2219;SDS011;1116;51.502;7.414;2023-11-21T04:36:39;15.20;;;7.75;;
2219;SDS011;1116;51.502;7.414;2023-11-21T04:39:12;24.23;;;8.05;;
2219;SDS011;1116;51.502;7.414;2023-11-21T04:41:42;17.92;;;8.18;;
2219;SDS011;1116;51.502;7.414;2023-11-21T04:44:11;17.52;;;8.10;;
2219;SDS011;1116;51.502;7.414;2023-11-21T04:46:42;20.83;;;8.07;;
2219;SDS011;1116;51.502;7.414;2023-11-21T04:49:14;17.50;;;8.40;;
2219;SDS011;1116;51.502;7.414;2023-11-21T04:51:43;17.58;;;8.18;;
2219;SDS011;1116;51.502;7.414;2023-11-21T04:54:16;14.63;;;7.70;;
2219;SDS011;1116;51.502;7.414;2023-11-21T04:56:46;16.27;;;8.55;;
2219;SDS011;1116;51.502;7.414;2023-11-21T04:59:16;20.70;;;8.13;;
2219;SDS011;1116;51.502;7.414;2023-11-21T05:01:46;16.80;;;8.27;;
2219;SDS011;1116;51.502;7.414;2023-11-21T05:04:16;16.20;;;7.63;;
2219;SDS011;1116;51.502;7.414;2023-11-21T05:06:47;14.52;;;7.43;;
2219;SDS011;1116;51.502;7.414;2023-11-21T05:09:19;14.88;;;7.72;;
2219;SDS011;1116;51.502;7.414;2023-11-21T05:11:49;13.00;;;7.57;;
2219;SDS011;1116;51.502;7.414;2023-11-21T05:14:19;18.27;;;7.72;;
2219;SDS011;1116;51.502;7.414;2023-11-21T05:16:49;17.23;;;7.72;;
2219;SDS011;1116;51.502;7.414;2023-11-21T05:19:20;15.02;;;7.63;;
2219;SDS011;1116;51.502;7.414;2023-11-21T05:21:50;19.55;;;9.25;;
2219;SDS011;1116;51.502;7.414;2023-11-21T05:24:22;22.80;;;8.65;;
2219;SDS011;1116;51.502;7.414;2023-11-21T05:26:52;15.32;;;6.70;;
2219;SDS011;1116;51.502;7.414;2023-11-21T05:29:22;16.48;;;8.13;;
2219;SDS011;1116;51.502;7.414;2023-11-21T05:31:52;14.50;;;7.53;;
2219;SDS011;1116;51.502;7.414;2023-11-21T05:34:22;16.20;;;7.63;;
2219;SDS011;1116;51.502;7.414;2023-11-21T05:36:52;13.32;;;7.47;;
2219;SDS011;1116;51.502;7.414;2023-11-21T05:39:27;16.58;;;8.30;;
2219;SDS011;1116;51.502;7.414;2023-11-21T05:41:58;12.75;;;7.65;;
2219;SDS011;1116;51.502;7.414;2023-11-21T05:44:28;14.50;;;7.28;;
2219;SDS011;1116;51.502;7.414;2023-11-21T05:46:58;15.15;;;8.38;;
2219;SDS011;1116;51.502;7.414;2023-11-21T05:49:29;15.45;;;7.90;;
2219;SDS011;1116;51.502;7.414;2023-11-21T05:51:58;17.17;;;7.45;;
2219;SDS011;1116;51.502;7.414;2023-11-21T05:54:31;18.77;;;8.48;;
2219;SDS011;1116;51.502;7.414;2023-11-21T05:57:01;19.92;;;8.18;;
2219;SDS011;1116;51.502;7.414;2023-11-21T05:59:31;16.50;;;7.88;;
2219;SDS011;1116;51.502;7.414;2023-11-21T06:02:01;19.42;;;8.48;;
2219;SDS011;1116;51.502;7.414;2023-11-21T06:04:31;13.52;;;7.70;;
2219;SDS011;1116;51.502;7.414;2023-11-21T06:07:02;17.45;;;7.57;;
2219;SDS011;1116;51.502;7.414;2023-11-21T06:09:36;15.88;;;7.93;;
2219;SDS011;1116;51.502;7.414;2023-11-21T06:12:06;14.25;;;7.63;;
2219;SDS011;1116;51.502;7.414;2023-11-21T06:14:36;15.95;;;8.13;;
2219;SDS011;1116;51.502;7.414;2023-11-21T06:17:06;20.60;;;9.90;;
2219;SDS011;1116;51.502;7.414;2023-11-21T06:19:36;17.15;;;8.73;;
2219;SDS011;1116;51.502;7.414;2023-11-21T06:22:04;17.00;;;9.02;;
2219;SDS011;1116;51.502;7.414;2023-11-21T06:24:37;16.98;;;8.50;;
2219;SDS011;1116;51.502;7.414;2023-11-21T06:27:08;17.25;;;8.95;;
2219;SDS011;1116;51.502;7.414;2023-11-21T06:29:38;16.75;;;8.35;;
2219;SDS011;1116;51.502;7.414;2023-11-21T06:32:08;15.45;;;7.30;;
2219;SDS011;1116;51.502;7.414;2023-11-21T06:34:39;19.23;;;9.52;;
2219;SDS011;1116;51.502;7.414;2023-11-21T06:37:09;18.40;;;8.88;;
2219;SDS011;1116;51.502;7.414;2023-11-21T06:39:41;19.55;;;9.15;;
2219;SDS011;1116;51.502;7.414;2023-11-21T06:42:11;20.10;;;9.80;;
2219;SDS011;1116;51.502;7.414;2023-11-21T06:44:41;22.33;;;8.70;;
2219;SDS011;1116;51.502;7.414;2023-11-21T06:47:11;23.83;;;10.45;;
2219;SDS011;1116;51.502;7.414;2023-11-21T06:49:42;24.35;;;10.65;;
2219;SDS011;1116;51.502;7.414;2023-11-21T06:52:14;24.17;;;11.43;;
2219;SDS011;1116;51.502;7.414;2023-11-21T06:54:47;24.25;;;12.15;;
2219;SDS011;1116;51.502;7.414;2023-11-21T06:57:17;24.95;;;12.32;;
2219;SDS011;1116;51.502;7.414;2023-11-21T06:59:48;27.45;;;12.85;;
2219;SDS011;1116;51.502;7.414;2023-11-21T07:02:18;28.83;;;12.77;;
2219;SDS011;1116;51.502;7.414;2023-11-21T07:04:48;24.52;;;12.18;;
2219;SDS011;1116;51.502;7.414;2023-11-21T07:07:18;26.67;;;12.85;;
2219;SDS011;1116;51.502;7.414;2023-11-21T07:09:51;25.33;;;12.05;;
2219;SDS011;1116;51.502;7.414;2023-11-21T07:12:21;24.17;;;12.38;;
2219;SDS011;1116;51.502;7.414;2023-11-21T07:14:52;22.80;;;11.65;;
2219;SDS011;1116;51.502;7.414;2023-11-21T07:17:22;29.42;;;11.48;;
2219;SDS011;1116;51.502;7.414;2023-11-21T07:19:52;24.50;;;11.75;;
2219;SDS011;1116;51.502;7.414;2023-11-21T07:22:22;24.73;;;11.18;;
2219;SDS011;1116;51.502;7.414;2023-11-21T07:24:55;23.33;;;10.68;;
2219;SDS011;1116;51.502;7.414;2023-11-21T07:27:25;34.33;;;11.45;;
2219;SDS011;1116;51.502;7.414;2023-11-21T07:29:55;25.52;;;12.38;;
2219;SDS011;1116;51.502;7.414;2023-11-21T07:32:25;30.30;;;13.45;;
2219;SDS011;1116;51.502;7.414;2023-11-21T07:34:55;25.48;;;11.95;;
2219;SDS011;1116;51.502;7.414;2023-11-21T07:37:26;26.60;;;14.15;;
2219;SDS011;1116;51.502;7.414;2023-11-21T07:39:59;36.53;;;13.43;;
2219;SDS011;1116;51.502;7.414;2023-11-21T07:42:29;24.25;;;11.65;;
2219;SDS011;1116;51.502;7.414;2023-11-21T07:44:59;27.55;;;13.63;;
2219;SDS011;1116;51.502;7.414;2023-11-21T07:47:29;31.05;;;12.80;;
2219;SDS011;1116;51.502;7.414;2023-11-21T07:50:02;23.52;;;12.05;;
2219;SDS011;1116;51.502;7.414;2023-11-21T07:52:34;33.08;;;13.50;;
2219;SDS011;1116;51.502;7.414;2023-11-21T07:55:07;25.35;;;12.45;;
2219;SDS011;1116;51.502;7.414;2023-11-21T07:57:38;21.25;;;11.02;;
2219;SDS011;1116;51.502;7.414;2023-11-21T08:00:08;26.25;;;11.35;;
2219;SDS011;1116;51.502;7.414;2023-11-21T08:02:39;25.40;;;10.88;;
2219;SDS011;1116;51.502;7.414;2023-11-21T08:05:12;29.35;;;12.77;;
2219;SDS011;1116;51.502;7.414;2023-11-21T08:07:53;27.38;;;12.82;;
2219;SDS011;1116;51.502;7.414;2023-11-21T08:10:26;37.35;;;16.13;;
2219;SDS011;1116;51.502;7.414;2023-11-21T08:12:56;26.73;;;12.85;;
2219;SDS011;1116;51.502;7.414;2023-11-21T08:15:26;32.30;;;12.82;;
2219;SDS011;1116;51.502;7.414;2023-11-21T08:17:58;33.33;;;14.18;;
2219;SDS011;1116;51.502;7.414;2023-11-21T08:20:28;37.05;;;16.08;;
2219;SDS011;1116;51.502;7.414;2023-11-21T08:22:58;37.00;;;15.43;;
2219;SDS011;1116;51.502;7.414;2023-11-21T08:25:32;43.47;;;18.38;;
2219;SDS011;1116;51.502;7.414;2023-11-21T08:28:01;36.53;;;17.17;;
2219;SDS011;1116;51.502;7.414;2023-11-21T08:30:32;36.33;;;16.40;;
2219;SDS011;1116;51.502;7.414;2023-11-21T08:33:01;40.75;;;16.15;;
2219;SDS011;1116;51.502;7.414;2023-11-21T08:35:32;33.05;;;15.68;;
2219;SDS011;1116;51.502;7.414;2023-11-21T08:38:02;29.30;;;13.50;;
2219;SDS011;1116;51.502;7.414;2023-11-21T08:40:35;30.52;;;12.82;;
2219;SDS011;1116;51.502;7.414;2023-11-21T08:43:05;34.05;;;13.05;;
2219;SDS011;1116;51.502;7.414;2023-11-21T08:45:35;30.25;;;13.73;;
2219;SDS011;1116;51.502;7.414;2023-11-21T08:48:05;28.30;;;13.30;;
2219;SDS011;1116;51.502;7.414;2023-11-21T08:50:35;32.28;;;13.82;;
2219;SDS011;1116;51.502;7.414;2023-11-21T08:53:05;37.95;;;15.15;;
2219;SDS011;1116;51.502;7.414;2023-11-21T08:55:37;30.20;;;13.55;;
2219;SDS011;1116;51.502;7.414;2023-11-21T08:58:08;31.33;;;13.85;;
2219;SDS011;1116;51.502;7.414;2023-11-21T09:00:39;26.60;;;11.70;;
2219;SDS011;1116;51.502;7.414;2023-11-21T09:03:11;32.47;;;13.18;;
2219;SDS011;1116;51.502;7.414;2023-11-21T09:05:41;25.23;;;12.38;;
2219;SDS011;1116;51.502;7.414;2023-11-21T09:08:11;35.72;;;14.95;;
2219;SDS011;1116;51.502;7.414;2023-11-21T09:10:43;24.85;;;11.88;;
2219;SDS011;1116;51.502;7.414;2023-11-21T09:13:14;30.60;;;12.45;;
2219;SDS011;1116;51.502;7.414;2023-11-21T09:15:43;29.60;;;13.45;;
2219;SDS011;1116;51.502;7.414;2023-11-21T09:18:16;27.35;;;12.55;;
2219;SDS011;1116;51.502;7.414;2023-11-21T09:20:46;32.63;;;14.23;;
2219;SDS011;1116;51.502;7.414;2023-11-21T09:23:16;27.27;;;13.00;;
2219;SDS011;1116;51.502;7.414;2023-11-21T09:25:48;28.92;;;13.32;;
2219;SDS011;1116;51.502;7.414;2023-11-21T09:28:18;32.65;;;14.02;;
2219;SDS011;1116;51.502;7.414;2023-11-21T09:30:48;39.15;;;16.10;;
2219;SDS011;1116;51.502;7.414;2023-11-21T09:33:18;37.35;;;15.50;;
2219;SDS011;1116;51.502;7.414;2023-11-21T09:35:48;41.33;;;16.80;;
2219;SDS011;1116;51.502;7.414;2023-11-21T09:38:19;38.63;;;16.88;;
2219;SDS011;1116;51.502;7.414;2023-11-21T09:40:51;43.58;;;17.38;;
2219;SDS011;1116;51.502;7.414;2023-11-21T09:43:24;52.72;;;21.05;;
2219;SDS011;1116;51.502;7.414;2023-11-21T09:45:59;46.63;;;19.25;;
2219;SDS011;1116;51.502;7.414;2023-11-21T09:48:30;54.22;;;22.23;;
2219;SDS011;1116;51.502;7.414;2023-11-21T09:51:03;54.75;;;21.83;;
2219;SDS011;1116;51.502;7.414;2023-11-21T09:53:35;60.22;;;23.60;;
2219;SDS011;1116;51.502;7.414;2023-11-21T09:56:08;55.67;;;23.25;;
2219;SDS011;1116;51.502;7.414;2023-11-21T09:58:38;67.10;;;24.85;;
2219;SDS011;1116;51.502;7.414;2023-11-21T10:01:08;63.30;;;24.10;;
2219;SDS011;1116;51.502;7.414;2023-11-21T10:03:39;60.25;;;25.13;;
2219;SDS011;1116;51.502;7.414;2023-11-21T10:06:09;57.85;;;23.40;;
2219;SDS011;1116;51.502;7.414;2023-11-21T10:08:42;51.08;;;20.33;;
2219;SDS011;1116;51.502;7.414;2023-11-21T10:11:23;54.28;;;24.35;;
2219;SDS011;1116;51.502;7.414;2023-11-21T10:13:54;47.58;;;21.30;;
2219;SDS011;1116;51.502;7.414;2023-11-21T10:16:26;61.67;;;23.60;;
2219;SDS011;1116;51.502;7.414;2023-11-21T10:18:58;59.55;;;24.42;;
2219;SDS011;1116;51.502;7.414;2023-11-21T10:21:37;57.85;;;24.25;;
2219;SDS011;1116;51.502;7.414;2023-11-21T10:24:08;52.83;;;22.50;;
2219;SDS011;1116;51.502;7.414;2023-11-21T10:26:41;51.35;;;19.52;;
2219;SDS011;1116;51.502;7.414;2023-11-21T10:29:19;52.60;;;22.05;;
2219;SDS011;1116;51.502;7.414;2023-11-21T10:31:50;58.22;;;21.20;;
2219;SDS011;1116;51.502;7.414;2023-11-21T10:34:24;54.13;;;21.55;;
2219;SDS011;1116;51.502;7.414;2023-11-21T10:36:54;52.65;;;22.70;;
2219;SDS011;1116;51.502;7.414;2023-11-21T10:39:24;58.63;;;22.20;;
2219;SDS011;1116;51.502;7.414;2023-11-21T10:42:00;53.53;;;22.73;;
2219;SDS011;1116;51.502;7.414;2023-11-21T10:44:30;60.35;;;22.33;;
2219;SDS011;1116;51.502;7.414;2023-11-21T10:47:00;62.75;;;22.30;;
2219;SDS011;1116;51.502;7.414;2023-11-21T10:49:30;53.33;;;21.77;;
2219;SDS011;1116;51.502;7.414;2023-11-21T10:52:00;66.28;;;23.88;;
2219;SDS011;1116;51.502;7.414;2023-11-21T10:54:30;54.83;;;22.08;;
2219;SDS011;1116;51.502;7.414;2023-11-21T10:57:05;55.35;;;22.13;;
2219;SDS011;1116;51.502;7.414;2023-11-21T10:59:35;56.40;;;20.77;;
2219;SDS011;1116;51.502;7.414;2023-11-21T11:02:09;44.30;;;18.65;;
2219;SDS011;1116;51.502;7.414;2023-11-21T11:04:52;46.88;;;19.45;;
2219;SDS011;1116;51.502;7.414;2023-11-21T11:07:24;55.38;;;19.58;;
2219;SDS011;1116;51.502;7.414;2023-11-21T11:09:58;48.67;;;18.13;;
2219;SDS011;1116;51.502;7.414;2023-11-21T11:12:33;49.33;;;20.85;;
2219;SDS011;1116;51.502;7.414;2023-11-21T11:15:03;53.72;;;21.33;;
2219;SDS011;1116;51.502;7.414;2023-11-21T11:17:36;55.92;;;21.25;;
2219;SDS011;1116;51.502;7.414;2023-11-21T11:20:08;44.65;;;17.83;;
2219;SDS011;1116;51.502;7.414;2023-11-21T11:22:44;56.70;;;19.05;;
2219;SDS011;1116;51.502;7.414;2023-11-21T11:25:30;52.92;;;20.08;;
2219;SDS011;1116;51.502;7.414;2023-11-21T11:28:17;45.42;;;19.63;;
2219;SDS011;1116;51.502;7.414;2023-11-21T11:30:53;46.53;;;18.95;;
2219;SDS011;1116;51.502;7.414;2023-11-21T11:33:36;42.72;;;18.40;;
2219;SDS011;1116;51.502;7.414;2023-11-21T11:36:15;47.45;;;18.58;;
2219;SDS011;1116;51.502;7.414;2023-11-21T11:38:50;39.92;;;17.38;;
2219;SDS011;1116;51.502;7.414;2023-11-21T11:41:26;43.58;;;17.02;;
2219;SDS011;1116;51.502;7.414;2023-11-21T11:44:01;42.17;;;18.23;;
2219;SDS011;1116;51.502;7.414;2023-11-21T11:46:41;39.85;;;17.33;;
2219;SDS011;1116;51.502;7.414;2023-11-21T11:49:23;43.55;;;17.88;;
2219;SDS011;1116;51.502;7.414;2023-11-21T11:54:56;39.20;;;17.00;;
2219;SDS011;1116;51.502;7.414;2023-11-21T11:57:25;43.33;;;18.10;;
2219;SDS011;1116;51.502;7.414;2023-11-21T12:00:11;34.28;;;15.13;;
2219;SDS011;1116;51.502;7.414;2023-11-21T12:02:47;37.58;;;14.80;;
2219;SDS011;1116;51.502;7.414;2023-11-21T12:05:19;36.05;;;14.55;;
2219;SDS011;1116;51.502;7.414;2023-11-21T12:07:50;36.85;;;14.45;;
2219;SDS011;1116;51.502;7.414;2023-11-21T12:10:21;31.10;;;14.70;;
2219;SDS011;1116;51.502;7.414;2023-11-21T12:12:53;29.08;;;13.13;;
2219;SDS011;1116;51.502;7.414;2023-11-21T12:15:27;27.70;;;12.75;;
2219;SDS011;1116;51.502;7.414;2023-11-21T12:17:57;33.92;;;13.00;;
2219;SDS011;1116;51.502;7.414;2023-11-21T12:20:28;29.73;;;12.32;;
2219;SDS011;1116;51.502;7.414;2023-11-21T12:23:06;39.50;;;14.18;;
2219;SDS011;1116;51.502;7.414;2023-11-21T12:25:37;29.25;;;13.85;;
2219;SDS011;1116;51.502;7.414;2023-11-21T12:28:09;26.02;;;13.70;;
2219;SDS011;1116;51.502;7.414;2023-11-21T12:30:41;33.03;;;14.88;;
2219;SDS011;1116;51.502;7.414;2023-11-21T12:33:12;28.92;;;12.85;;
2219;SDS011;1116;51.502;7.414;2023-11-21T12:35:44;29.48;;;13.40;;
2219;SDS011;1116;51.502;7.414;2023-11-21T12:38:14;26.27;;;13.85;;
2219;SDS011;1116;51.502;7.414;2023-11-21T12:40:45;30.13;;;13.85;;
2219;SDS011;1116;51.502;7.414;2023-11-21T12:43:15;24.73;;;11.80;;
2219;SDS011;1116;51.502;7.414;2023-11-21T12:45:49;24.73;;;11.07;;
2219;SDS011;1116;51.502;7.414;2023-11-21T12:48:19;20.95;;;11.60;;
2219;SDS011;1116;51.502;7.414;2023-11-21T12:50:51;23.52;;;11.70;;
2219;SDS011;1116;51.502;7.414;2023-11-21T12:53:22;26.50;;;11.88;;
2219;SDS011;1116;51.502;7.414;2023-11-21T12:55:52;32.08;;;13.10;;
2219;SDS011;1116;51.502;7.414;2023-11-21T12:58:25;21.15;;;10.57;;
2219;SDS011;1116;51.502;7.414;2023-11-21T13:00:58;22.25;;;11.23;;
2219;SDS011;1116;51.502;7.414;2023-11-21T13:03:31;26.95;;;12.18;;
2219;SDS011;1116;51.502;7.414;2023-11-21T13:06:03;20.80;;;10.20;;
2219;SDS011;1116;51.502;7.414;2023-11-21T13:08:34;25.60;;;12.15;;
2219;SDS011;1116;51.502;7.414;2023-11-21T13:11:05;24.55;;;11.75;;
2219;SDS011;1116;51.502;7.414;2023-11-21T13:13:36;23.10;;;12.32;;
2219;SDS011;1116;51.502;7.414;2023-11-21T13:16:09;24.83;;;13.02;;
2219;SDS011;1116;51.502;7.414;2023-11-21T13:18:39;25.88;;;13.35;;
2219;SDS011;1116;51.502;7.414;2023-11-21T13:21:10;27.13;;;13.52;;
2219;SDS011;1116;51.502;7.414;2023-11-21T13:23:41;24.88;;;12.55;;
2219;SDS011;1116;51.502;7.414;2023-11-21T13:26:13;23.65;;;11.40;;
2219;SDS011;1116;51.502;7.414;2023-11-21T13:28:43;23.58;;;11.73;;
2219;SDS011;1116;51.502;7.414;2023-11-21T13:31:17;23.13;;;11.07;;
2219;SDS011;1116;51.502;7.414;2023-11-21T13:33:53;19.27;;;10.27;;
2219;SDS011;1116;51.502;7.414;2023-11-21T13:36:32;21.80;;;10.10;;
2219;SDS011;1116;51.502;7.414;2023-11-21T13:39:02;23.70;;;11.10;;
2219;SDS011;1116;51.502;7.414;2023-11-21T13:41:35;20.52;;;10.63;;
2219;SDS011;1116;51.502;7.414;2023-11-21T13:44:05;23.10;;;10.25;;
2219;SDS011;1116;51.502;7.414;2023-11-21T13:46:45;20.77;;;10.07;;
2219;SDS011;1116;51.502;7.414;2023-11-21T13:49:16;22.40;;;9.25;;
2219;SDS011;1116;51.502;7.414;2023-11-21T13:51:47;20.83;;;10.25;;
2219;SDS011;1116;51.502;7.414;2023-11-21T13:54:21;23.80;;;10.57;;
2219;SDS011;1116;51.502;7.414;2023-11-21T13:56:52;19.45;;;10.43;;
2219;SDS011;1116;51.502;7.414;2023-11-21T13:59:21;24.73;;;10.50;;
2219;SDS011;1116;51.502;7.414;2023-11-21T14:01:57;18.23;;;9.48;;
2219;SDS011;1116;51.502;7.414;2023-11-21T14:04:39;21.92;;;9.70;;
2219;SDS011;1116;51.502;7.414;2023-11-21T14:07:21;18.35;;;9.32;;
2219;SDS011;1116;51.502;7.414;2023-11-21T14:09:59;17.67;;;8.68;;
2219;SDS011;1116;51.502;7.414;2023-11-21T14:12:30;20.23;;;7.85;;
2219;SDS011;1116;51.502;7.414;2023-11-21T14:15:05;18.05;;;9.10;;
2219;SDS011;1116;51.502;7.414;2023-11-21T14:17:39;20.52;;;9.68;;
2219;SDS011;1116;51.502;7.414;2023-11-21T14:20:09;18.38;;;8.70;;
2219;SDS011;1116;51.502;7.414;2023-11-21T14:22:43;25.45;;;10.13;;
2219;SDS011;1116;51.502;7.414;2023-11-21T14:25:13;17.98;;;8.93;;
2219;SDS011;1116;51.502;7.414;2023-11-21T14:27:44;18.33;;;8.35;;
2219;SDS011;1116;51.502;7.414;2023-11-21T14:30:14;21.33;;;9.60;;
2219;SDS011;1116;51.502;7.414;2023-11-21T14:32:48;17.88;;;8.82;;
2219;SDS011;1116;51.502;7.414;2023-11-21T14:35:19;18.05;;;8.23;;
2219;SDS011;1116;51.502;7.414;2023-11-21T14:37:49;16.02;;;8.93;;
2219;SDS011;1116;51.502;7.414;2023-11-21T14:40:19;15.35;;;7.60;;
2219;SDS011;1116;51.502;7.414;2023-11-21T14:42:51;19.00;;;8.50;;
2219;SDS011;1116;51.502;7.414;2023-11-21T14:45:23;14.15;;;6.97;;
2219;SDS011;1116;51.502;7.414;2023-11-21T14:47:57;14.60;;;7.55;;
2219;SDS011;1116;51.502;7.414;2023-11-21T14:50:33;12.45;;;6.65;;
2219;SDS011;1116;51.502;7.414;2023-11-21T14:53:19;10.13;;;5.80;;
2219;SDS011;1116;51.502;7.414;2023-11-21T14:56:10;10.65;;;5.95;;
2219;SDS011;1116;51.502;7.414;2023-11-21T14:58:37;9.10;;;5.53;;
2219;SDS011;1116;51.502;7.414;2023-11-21T15:01:07;11.55;;;5.70;;
2219;SDS011;1116;51.502;7.414;2023-11-21T15:03:37;12.35;;;6.63;;
2219;SDS011;1116;51.502;7.414;2023-11-21T15:06:17;10.30;;;6.25;;
2219;SDS011;1116;51.502;7.414;2023-11-21T15:08:53;12.18;;;5.90;;
2219;SDS011;1116;51.502;7.414;2023-11-21T15:11:39;11.30;;;6.13;;
2219;SDS011;1116;51.502;7.414;2023-11-21T15:14:09;10.35;;;6.45;;
2219;SDS011;1116;51.502;7.414;2023-11-21T15:16:39;9.30;;;6.05;;
2219;SDS011;1116;51.502;7.414;2023-11-21T15:19:16;10.82;;;5.95;;
2219;SDS011;1116;51.502;7.414;2023-11-21T15:21:52;9.70;;;5.60;;
2219;SDS011;1116;51.502;7.414;2023-11-21T15:24:22;7.78;;;4.80;;